Latest Coastal Weather Observations for Moruya Airport

IDN60701

Issued at 6:41 am EST Saturday 7 May 2016 (issued every 10 minutes, with the page automatically refreshed every 10 minutes)

About coastal observations | Map of coastal stations | Coastal observations for NSW | Marine services | Other Formats
Station Details ID: 069148 Name: MORUYA AIRPORT AWS Lat: -35.90 Lon: 150.14 Height: 4.0 m
Data from the previous 72 hours. | See also: Recent months at Moruya Airport
Date/Time
EST
Temp

°C
Wind Pressure Rain
since 9am
mm
Weather Cloud Vis
km
Sea
Height
m
Swell
Dir
 
Speed
knots
Gust
knots
hPa Trend Height
m
Period
s
Dir
07/06:30am 6.3 W 1 4 1019.3 - 0.0 - - 10 - - - -
07/06:18am 6.0 W 1 5 1019.2 - 0.0 - - 10 - - - -
07/06:00am 5.7 CALM 0 0 1019.3 - 0.0 - - 0.5 - - - -
07/05:53am 5.9 W 1 4 1019.2 - 0.0 - - 3 - - - -
07/05:30am 6.2 NW 1 3 1019.1 - 0.0 - - 10 - - - -
07/05:03am 6.9 CALM 0 0 1018.9 - 0.0 - - 10 - - - -
07/05:00am 6.6 CALM 0 0 1018.8 - 0.0 - - 10 - - - -
07/04:43am 6.3 CALM 0 0 1018.7 - 0.0 - - 4 - - - -
07/04:30am 6.5 CALM 0 0 1018.6 - 0.0 - - 8 - - - -
07/04:00am 6.4 CALM 0 0 1018.3 - 0.0 - - 10 - - - -
07/03:30am 7.4 CALM 0 0 1018.2 - 0.0 - - 10 - - - -
07/03:00am 6.9 CALM 0 0 1018.3 - 0.0 - - 10 - - - -
07/02:30am 7.1 CALM 0 0 1018.4 - 0.0 - - 10 - - - -
07/02:00am 7.5 CALM 0 3 1018.5 - 0.0 - - 10 - - - -
07/01:30am 8.0 CALM 0 0 1018.9 - 0.0 - - 10 - - - -
07/01:00am 8.0 CALM 0 0 1019.0 - 0.0 - - 10 - - - -
07/12:30am 8.6 CALM 0 0 1019.2 - 0.0 - - 10 - - - -
07/12:00am 8.3 W 1 4 1019.4 - 0.0 - - 10 - - - -
 
Date/Time
EST
Temp

°C
Wind Pressure Rain
since 9am
mm
Weather Cloud Vis
km
Sea
Height
m
Swell
Dir
 
Speed
knots
Gust
knots
hPa Trend Height
m
Period
s
Dir
06/11:30pm 9.3 CALM 0 0 1019.5 - 0.0 - - 10 - - - -
06/11:00pm 9.0 CALM 0 0 1019.5 - 0.0 - - 10 - - - -
06/10:30pm 9.4 CALM 0 0 1019.4 - 0.0 - - 10 - - - -
06/10:00pm 10.1 CALM 0 0 1019.4 - 0.0 - - 10 - - - -
06/09:30pm 10.1 CALM 0 0 1019.4 - 0.0 - - 10 - - - -
06/09:00pm 9.9 CALM 0 0 1019.4 - 0.0 - - 10 - - - -
06/08:30pm 10.1 CALM 0 0 1019.2 - 0.0 - - 10 - - - -
06/08:00pm 11.0 CALM 0 0 1019.1 - 0.0 - - 10 - - - -
06/07:30pm 11.6 CALM 0 0 1018.9 - 0.0 - - 10 - - - -
06/07:00pm 12.3 CALM 0 0 1018.5 - 0.0 - - 10 - - - -
06/06:30pm 12.9 CALM 0 0 1018.2 - 0.0 - - 10 - - - -
06/06:00pm 13.8 CALM 0 0 1017.9 - 0.0 - - 10 - - - -
06/05:30pm 15.1 N 3 4 1017.6 - 0.0 - - 10 - - - -
06/05:00pm 17.2 N 4 6 1017.2 - 0.0 - - 8 - - - -
06/04:30pm 19.7 NNE 4 5 1017.1 - 0.0 - - 10 - - - -
06/04:00pm 20.8 NE 5 6 1016.9 - 0.0 - - 10 - - - -
06/03:30pm 21.1 NE 6 7 1016.9 - 0.0 - - 10 - - - -
06/03:00pm 21.3 NE 7 8 1016.8 - 0.0 - - 10 - - - -
06/02:30pm 21.2 NE 8 9 1016.7 - 0.0 - - 10 - - - -
06/02:00pm 21.7 NE 9 10 1016.7 - 0.0 - - 10 - - - -
06/01:30pm 21.4 NE 8 9 1016.8 - 0.0 - - 10 - - - -
06/01:00pm 21.1 NE 7 8 1016.8 - 0.0 - - 10 - - - -
06/12:30pm 21.2 ENE 7 8 1017.0 - 0.0 - - 10 - - - -
06/12:00pm 21.8 ENE 6 7 1017.4 - 0.0 - - 10 - - - -
06/11:30am 21.6 E 6 7 1017.8 - 0.0 - - 10 - - - -
06/11:00am 22.2 S 3 5 1018.2 - 0.0 - - 10 - - - -
06/10:30am 20.3 SW 4 5 1018.6 - 0.0 - - 10 - - - -
06/10:00am 18.2 SW 5 7 1018.7 - 0.0 - - 10 - - - -
06/09:30am 16.5 WSW 4 6 1018.7 - 0.0 - - 10 - - - -
06/09:00am 13.3 SW 4 5 1018.7 - 0.0 - - 10 - - - -
06/08:30am 10.4 WSW 3 6 1018.7 - 0.0 - - 10 - - - -
06/08:00am 7.1 W 3 5 1018.4 - 0.0 - - 10 - - - -
06/07:30am 6.0 CALM 0 3 1017.9 - 0.0 - - 10 - - - -
06/07:00am 5.6 CALM 0 0 1017.5 - 0.0 - - 10 - - - -
06/06:30am 6.3 CALM 0 0 1017.0 - 0.0 - - 10 - - - -
06/06:00am 6.6 SW 5 6 1016.5 - 0.0 - - 10 - - - -
06/05:30am 6.3 WSW 3 5 1016.3 - 0.0 - - 10 - - - -
06/05:00am 5.5 W 4 6 1015.7 - 0.0 - - 10 - - - -
06/04:58am 5.6 W 3 6 1015.7 - 0.0 - - 9 - - - -
06/04:38am 5.2 CALM 0 0 1015.5 - 0.0 - - 5 - - - -
06/04:30am 6.2 CALM 0 3 1015.4 - 0.0 - - 10 - - - -
06/04:00am 6.5 NW 1 6 1015.1 - 0.0 - - 10 - - - -
06/03:53am 6.7 CALM 0 0 1015.1 - 0.0 - - 10 - - - -
06/03:34am 6.1 NNW 3 4 1015.1 - 0.0 - - 4 - - - -
06/03:30am 6.4 NNW 2 4 1015.0 - 0.0 - - 10 - - - -
06/03:00am 6.2 WSW 1 3 1014.9 - 0.0 - - 7 - - - -
06/02:49am 6.4 WSW 3 4 1015.0 - 0.0 - - 10 - - - -
06/02:30am 7.1 SW 1 4 1015.2 - 0.0 - - 5 - - - -
06/02:00am 7.0 WSW 4 6 1015.2 - 0.0 - - 10 - - - -
06/01:30am 7.5 NW 3 4 1015.3 - 0.0 - - 10 - - - -
06/01:00am 7.4 SW 6 7 1015.5 - 0.0 - - 10 - - - -
06/12:30am 8.2 WSW 5 7 1015.5 - 0.0 - - 10 - - - -
06/12:00am 9.3 SSW 5 7 1015.6 - 0.0 - - 10 - - - -
 
Date/Time
EST
Temp

°C
Wind Pressure Rain
since 9am
mm
Weather Cloud Vis
km
Sea
Height
m
Swell
Dir
 
Speed
knots
Gust
knots
hPa Trend Height
m
Period
s
Dir
05/11:30pm 7.9 NNE 4 6 1015.3 - 0.0 - - 10 - - - -
05/11:00pm 7.9 W 5 6 1015.6 - 0.0 - - 10 - - - -
05/10:30pm 8.1 W 3 4 1015.8 - 0.0 - - 10 - - - -
05/10:00pm 8.8 WSW 3 5 1016.0 - 0.0 - - 10 - - - -
05/09:30pm 9.0 WNW 1 3 1016.2 - 0.0 - - 10 - - - -
05/09:00pm 9.1 SW 3 3 1016.4 - 0.0 - - 10 - - - -
05/08:30pm 9.5 SW 2 5 1016.4 - 0.0 - - 10 - - - -
05/08:00pm 10.1 NW 3 4 1016.5 - 0.0 - - 10 - - - -
05/07:30pm 10.9 NW 5 6 1016.4 - 0.0 - - 10 - - - -
05/07:00pm 11.4 NW 4 5 1016.5 - 0.0 - - 10 - - - -
05/06:30pm 12.5 NNW 5 6 1016.5 - 0.0 - - 10 - - - -
05/06:00pm 14.6 N 6 8 1016.3 - 0.0 - - 10 - - - -
05/05:30pm 15.6 N 7 8 1016.0 - 0.0 - - 10 - - - -
05/05:00pm 15.2 N 7 8 1015.9 - 0.0 - - 10 - - - -
05/04:30pm 17.3 NNE 7 9 1016.0 - 0.0 - - 10 - - - -
05/04:00pm 18.5 NNE 7 8 1015.9 - 0.0 - - 10 - - - -
05/03:30pm 18.9 ENE 7 9 1015.9 - 0.0 - - 10 - - - -
05/03:00pm 19.1 ENE 6 8 1015.9 - 0.0 - - 10 - - - -
05/02:30pm 19.0 E 7 9 1016.0 - 0.0 - - 10 - - - -
05/02:00pm 19.2 E 7 9 1016.2 - 0.0 - - 10 - - - -
05/01:30pm 19.1 E 7 9 1016.4 - 0.0 - - 10 - - - -
05/01:00pm 18.8 E 7 8 1016.8 - 0.0 - - 10 - - - -
05/12:30pm 18.9 E 7 8 1017.2 - 0.0 - - 10 - - - -
05/12:00pm 18.7 ENE 7 8 1017.8 - 0.0 - - 10 - - - -
05/11:30am 18.2 E 6 8 1018.4 - 0.0 - - 10 - - - -
05/11:00am 18.7 SE 4 5 1018.9 - 0.0 - - 10 - - - -
05/10:30am 17.5 W 3 5 1019.3 - 0.0 - - 10 - - - -
05/10:00am 15.9 SW 6 8 1019.6 - 0.0 - - 10 - - - -
05/09:30am 14.3 SW 5 6 1019.7 - 0.0 - - 10 - - - -
05/09:00am 12.3 SW 5 7 1019.8 - 0.0 - - 10 - - - -
05/08:30am 10.9 WSW 1 4 1019.8 - 0.0 - - 10 - - - -
05/08:00am 9.3 SW 5 7 1019.6 - 0.0 - - 10 - - - -
05/07:30am 7.5 CALM 0 0 1019.3 - 0.0 - - 10 - - - -
05/07:00am 6.5 WNW 4 6 1018.9 - 0.0 - - 10 - - - -
05/06:30am 5.8 WNW 1 3 1018.7 - 0.0 - - 10 - - - -
05/06:00am 6.7 W 4 7 1018.4 - 0.0 - - 10 - - - -
05/05:30am 7.1 WSW 4 7 1018.1 - 0.0 - - 10 - - - -
05/05:00am 7.7 SW 7 9 1017.9 - 0.0 - - 10 - - - -
05/04:30am 6.6 WSW 4 7 1017.6 - 0.0 - - 10 - - - -
05/04:00am 6.0 W 4 5 1017.4 - 0.0 - - 10 - - - -
05/03:30am 6.1 WSW 4 5 1017.2 - 0.0 - - 10 - - - -
05/03:19am 6.1 WSW 3 5 1017.1 - 0.0 - - 10 - - - -
05/03:00am 6.0 WSW 3 5 1017.2 - 0.0 - - 4 - - - -
05/02:59am 6.0 WSW 3 5 1017.2 - 0.0 - - 5 - - - -
05/02:30am 7.4 SW 5 6 1017.4 - 0.0 - - 10 - - - -
05/02:19am 7.2 SW 2 6 1017.4 - 0.0 - - 10 - - - -
05/02:02am 7.3 SW 1 3 1017.3 - 0.0 - - 5 - - - -
05/02:00am 7.4 SW 2 3 1017.3 - 0.0 - - 10 - - - -
05/01:30am 6.8 WSW 4 5 1017.3 - 0.0 - - 10 - - - -
05/01:07am 8.1 W 3 5 1017.5 - 0.0 - - 10 - - - -
05/01:00am 7.7 WNW 3 4 1017.6 - 0.0 - - 10 - - - -
05/12:43am 7.5 NW 3 5 1017.7 - 0.0 - - 5 - - - -
05/12:30am 8.3 WNW 4 6 1017.7 - 0.0 - - 10 - - - -
05/12:23am 8.1 NW 4 6 1017.8 - 0.0 - - 10 - - - -
05/12:00am 7.5 CALM 0 0 1018.0 - 0.0 - - 2 - - - -
 
Date/Time
EST
Temp

°C
Wind Pressure Rain
since 9am
mm
Weather Cloud Vis
km
Sea
Height
m
Swell
Dir
 
Speed
knots
Gust
knots
hPa Trend Height
m
Period
s
Dir
04/11:57pm 7.6 CALM 0 0 1017.9 - 0.0 - - 5 - - - -
04/11:30pm 8.2 CALM 0 0 1018.2 - 0.0 - - 10 - - - -
04/11:00pm 8.9 WNW 2 3 1018.3 - 0.0 - - 10 - - - -
04/10:30pm 9.5 NW 4 5 1018.4 - 0.0 - - 10 - - - -
04/10:23pm 9.9 NW 3 6 1018.5 - 0.0 - - 10 - - - -
04/10:05pm 9.6 W 2 4 1018.5 - 0.0 - - 5 - - - -
04/10:00pm 10.1 WNW 3 4 1018.5 - 0.0 - - 10 - - - -
04/09:30pm 10.4 WNW 4 5 1018.6 - 0.0 - - 10 - - - -
04/09:00pm 10.8 CALM 0 0 1018.4 - 0.0 - - 10 - - - -
04/08:30pm 12.0 CALM 0 3 1018.4 - 0.0 - - 10 - - - -
04/08:00pm 13.3 W 3 4 1018.2 - 0.0 - - 10 - - - -
04/07:30pm 13.8 W 3 4 1018.0 - 0.0 - - 10 - - - -
04/07:00pm 14.3 W 4 6 1017.8 - 0.0 - - 10 - - - -
04/06:30pm 14.4 W 4 4 1017.4 - 0.0 - - 10 - - - -
04/06:00pm 15.4 WNW 3 4 1016.9 - 0.0 - - 10 - - - -
04/05:30pm 15.9 WNW 3 4 1016.6 - 0.0 - Partly cloudy 10 - - - -
04/05:00pm 16.7 WSW 3 5 1016.2 - 0.0 - - 10 - - - -
04/04:30pm 17.5 SSE 3 5 1015.9 - 0.0 - - 10 - - - -
04/04:00pm 17.4 SE 4 6 1015.8 - 0.0 - - 10 - - - -
04/03:30pm 18.0 SE 6 9 1015.7 - 0.0 - - 10 - - - -
04/03:00pm 18.0 SE 6 9 1015.7 - 0.0 - Mostly clear 10 - - - -
04/02:30pm 17.6 SE 7 10 1015.4 - 0.0 - Partly cloudy 10 - - - -
04/02:00pm 17.4 SE 7 11 1015.2 - 0.0 - Partly cloudy 10 - - - -
04/01:30pm 18.6 SE 7 9 1015.1 - 0.0 - - 10 - - - -
04/01:00pm 17.8 SE 7 10 1015.1 - 0.0 - - 10 - - - -
04/12:30pm 18.1 SE 8 11 1015.1 - 0.0 - - 10 - - - -
04/12:00pm 18.2 SE 8 11 1015.3 - 0.0 - - 10 - - - -
04/11:30am 17.0 SSE 9 12 1015.7 - 0.0 - - 10 - - - -
04/11:00am 17.0 S 9 14 1015.7 - 0.0 - - 10 - - - -
04/10:30am 16.9 S 8 12 1015.5 - 0.0 - - 10 - - - -
04/10:00am 16.7 SSE 6 9 1015.4 - 0.0 - Partly cloudy 10 - - - -
04/09:30am 16.4 S 8 11 1015.2 - 0.0 - Partly cloudy 10 - - - -
04/09:00am 16.6 S 7 9 1014.9 - 0.0 - - 10 - - - -
04/08:30am 16.2 S 9 13 1014.6 - 0.0 - - 10 - - - -
04/08:00am 15.8 SSW 6 8 1014.1 - 0.0 - Partly cloudy 10 - - - -
04/07:30am 16.0 SSW 7 9 1013.6 - 0.0 - Partly cloudy 10 - - - -
04/07:00am 15.8 SSW 8 13 1012.6 - 0.0 - - 10 - - - -

Other Formats:

Comma delimited format used in spreadsheet applications
http://www.bom.gov.au/fwo/IDN60701/IDN60701.95937.axf

JavaScript Object Notation format (JSON) in row-major order
http://www.bom.gov.au/fwo/IDN60701/IDN60701.95937.json